Terminal Aerodrome Forecast
Issued by NWS Upton, NY

Home | Current Version | Previous Version | Text Only | Print | Product List | Glossary On
Versions: 1 2 3 4 5 6 7 8 9 10 11 12 13 14 15 16 17 18 19 20 21 22 23 24 25 26 27 28 29 30
000
FTUS41 KOKX 190204 AAA
TAFBDR
TAF AMD
KBDR 190204Z 1902/1924 21012KT 6SM -SHRA BR SCT030 OVC050
     FM190600 21015G25KT 5SM -SHRA BR OVC035
     FM190800 21017G30KT 3SM SHRA BR BKN015 OVC035
     FM191300 24022G39KT 6SM -SHRA BR BKN020 OVC035
     FM191600 29022G37KT P6SM SCT040=

USA.gov is the U.S. government's official web portal to all federal, state and local government web resources and services.